sensor_id;sensor_type;location;lat;lon;timestamp;pressure;altitude;pressure_sealevel;temperature;humidity
41573;BME280;27286;47.870;19.006;2024-01-30T00:01:39;101591.19;;;-4.13;100.00
41573;BME280;27286;47.870;19.006;2024-01-30T00:04:05;101597.81;;;-4.16;100.00
41573;BME280;27286;47.870;19.006;2024-01-30T00:06:30;101594.31;;;-4.02;100.00
41573;BME280;27286;47.870;19.006;2024-01-30T00:08:56;101592.22;;;-3.93;100.00
41573;BME280;27286;47.870;19.006;2024-01-30T00:11:22;101604.50;;;-3.86;100.00
41573;BME280;27286;47.870;19.006;2024-01-30T00:13:47;101590.78;;;-3.88;100.00
41573;BME280;27286;47.870;19.006;2024-01-30T00:16:22;101593.75;;;-3.97;100.00
41573;BME280;27286;47.870;19.006;2024-01-30T00:18:52;101599.72;;;-4.12;100.00
41573;BME280;27286;47.870;19.006;2024-01-30T00:21:18;101600.66;;;-3.94;100.00
41573;BME280;27286;47.870;19.006;2024-01-30T00:23:44;101600.28;;;-4.02;100.00
41573;BME280;27286;47.870;19.006;2024-01-30T00:26:09;101611.56;;;-4.13;100.00
41573;BME280;27286;47.870;19.006;2024-01-30T00:28:35;101610.75;;;-4.28;100.00
41573;BME280;27286;47.870;19.006;2024-01-30T00:31:00;101602.53;;;-4.22;100.00
41573;BME280;27286;47.870;19.006;2024-01-30T00:33:26;101608.78;;;-4.17;100.00
41573;BME280;27286;47.870;19.006;2024-01-30T00:35:51;101613.59;;;-4.22;100.00
41573;BME280;27286;47.870;19.006;2024-01-30T00:38:16;101604.22;;;-4.23;100.00
41573;BME280;27286;47.870;19.006;2024-01-30T00:40:42;101603.91;;;-4.29;100.00
41573;BME280;27286;47.870;19.006;2024-01-30T00:43:08;101609.72;;;-4.32;100.00
41573;BME280;27286;47.870;19.006;2024-01-30T00:45:33;101610.06;;;-4.40;100.00
41573;BME280;27286;47.870;19.006;2024-01-30T00:47:59;101605.00;;;-4.40;100.00
41573;BME280;27286;47.870;19.006;2024-01-30T00:50:24;101607.47;;;-4.42;100.00
41573;BME280;27286;47.870;19.006;2024-01-30T00:52:49;101610.78;;;-4.43;100.00
41573;BME280;27286;47.870;19.006;2024-01-30T00:55:15;101606.44;;;-4.45;100.00
41573;BME280;27286;47.870;19.006;2024-01-30T00:57:40;101604.75;;;-4.45;100.00
41573;BME280;27286;47.870;19.006;2024-01-30T01:00:08;101606.22;;;-4.34;100.00
41573;BME280;27286;47.870;19.006;2024-01-30T01:02:37;101597.31;;;-4.26;100.00
41573;BME280;27286;47.870;19.006;2024-01-30T01:05:04;101571.34;;;-4.36;100.00
41573;BME280;27286;47.870;19.006;2024-01-30T01:07:30;101587.00;;;-4.12;100.00
41573;BME280;27286;47.870;19.006;2024-01-30T01:09:55;101592.00;;;-3.98;100.00
41573;BME280;27286;47.870;19.006;2024-01-30T01:12:21;101592.72;;;-4.00;100.00
41573;BME280;27286;47.870;19.006;2024-01-30T01:14:46;101588.81;;;-3.94;100.00
41573;BME280;27286;47.870;19.006;2024-01-30T01:17:12;101577.84;;;-4.09;100.00
41573;BME280;27286;47.870;19.006;2024-01-30T01:19:37;101584.94;;;-4.19;100.00
41573;BME280;27286;47.870;19.006;2024-01-30T01:22:03;101584.03;;;-4.04;100.00
41573;BME280;27286;47.870;19.006;2024-01-30T01:24:31;101586.75;;;-4.17;100.00
41573;BME280;27286;47.870;19.006;2024-01-30T01:26:56;101577.91;;;-4.24;100.00
41573;BME280;27286;47.870;19.006;2024-01-30T01:29:22;101585.88;;;-3.85;100.00
41573;BME280;27286;47.870;19.006;2024-01-30T01:31:54;101575.22;;;-4.10;100.00
41573;BME280;27286;47.870;19.006;2024-01-30T01:34:19;101581.19;;;-4.10;100.00
41573;BME280;27286;47.870;19.006;2024-01-30T01:36:45;101583.00;;;-4.07;100.00
41573;BME280;27286;47.870;19.006;2024-01-30T01:39:12;101590.63;;;-4.07;100.00
41573;BME280;27286;47.870;19.006;2024-01-30T01:41:38;101592.06;;;-4.29;100.00
41573;BME280;27286;47.870;19.006;2024-01-30T01:44:03;101587.28;;;-4.39;100.00
41573;BME280;27286;47.870;19.006;2024-01-30T01:46:30;101587.31;;;-4.54;100.00
41573;BME280;27286;47.870;19.006;2024-01-30T01:48:56;101577.72;;;-4.59;100.00
41573;BME280;27286;47.870;19.006;2024-01-30T01:51:23;101579.19;;;-4.32;100.00
41573;BME280;27286;47.870;19.006;2024-01-30T01:53:50;101581.94;;;-4.43;100.00
41573;BME280;27286;47.870;19.006;2024-01-30T01:56:16;101569.22;;;-4.60;100.00
41573;BME280;27286;47.870;19.006;2024-01-30T01:58:41;101578.34;;;-4.63;100.00
41573;BME280;27286;47.870;19.006;2024-01-30T02:01:08;101580.56;;;-4.69;100.00
41573;BME280;27286;47.870;19.006;2024-01-30T02:03:34;101582.00;;;-4.58;100.00
41573;BME280;27286;47.870;19.006;2024-01-30T02:06:00;101577.72;;;-4.59;100.00
41573;BME280;27286;47.870;19.006;2024-01-30T02:08:27;101571.72;;;-4.45;100.00
41573;BME280;27286;47.870;19.006;2024-01-30T02:10:53;101578.38;;;-4.47;100.00
41573;BME280;27286;47.870;19.006;2024-01-30T02:13:21;101575.81;;;-4.63;100.00
41573;BME280;27286;47.870;19.006;2024-01-30T02:15:52;101574.19;;;-4.77;100.00
41573;BME280;27286;47.870;19.006;2024-01-30T02:18:19;101574.25;;;-4.45;100.00
41573;BME280;27286;47.870;19.006;2024-01-30T02:20:46;101576.22;;;-4.56;100.00
41573;BME280;27286;47.870;19.006;2024-01-30T02:23:13;101570.41;;;-4.69;100.00
41573;BME280;27286;47.870;19.006;2024-01-30T02:25:40;101571.34;;;-4.67;100.00
41573;BME280;27286;47.870;19.006;2024-01-30T02:28:13;101574.50;;;-4.71;100.00
41573;BME280;27286;47.870;19.006;2024-01-30T02:30:39;101567.81;;;-4.86;100.00
41573;BME280;27286;47.870;19.006;2024-01-30T02:33:04;101571.91;;;-4.88;100.00
41573;BME280;27286;47.870;19.006;2024-01-30T02:35:30;101573.22;;;-4.79;100.00
41573;BME280;27286;47.870;19.006;2024-01-30T02:37:55;101571.47;;;-4.80;100.00
41573;BME280;27286;47.870;19.006;2024-01-30T02:40:21;101577.50;;;-4.78;100.00
41573;BME280;27286;47.870;19.006;2024-01-30T02:42:46;101565.31;;;-4.69;100.00
41573;BME280;27286;47.870;19.006;2024-01-30T02:45:12;101568.69;;;-4.85;100.00
41573;BME280;27286;47.870;19.006;2024-01-30T02:47:38;101571.91;;;-4.88;100.00
41573;BME280;27286;47.870;19.006;2024-01-30T02:50:04;101571.44;;;-4.97;100.00
41573;BME280;27286;47.870;19.006;2024-01-30T02:52:29;101577.38;;;-4.96;100.00
41573;BME280;27286;47.870;19.006;2024-01-30T02:54:55;101564.72;;;-4.33;100.00
41573;BME280;27286;47.870;19.006;2024-01-30T02:57:20;101571.91;;;-4.57;100.00
41573;BME280;27286;47.870;19.006;2024-01-30T02:59:46;101580.34;;;-4.58;100.00
41573;BME280;27286;47.870;19.006;2024-01-30T03:02:11;101577.31;;;-4.67;100.00
41573;BME280;27286;47.870;19.006;2024-01-30T03:04:36;101572.50;;;-4.77;100.00
41573;BME280;27286;47.870;19.006;2024-01-30T03:07:02;101575.53;;;-4.84;100.00
41573;BME280;27286;47.870;19.006;2024-01-30T03:09:28;101583.13;;;-4.37;100.00
41573;BME280;27286;47.870;19.006;2024-01-30T03:11:54;101568.91;;;-4.66;100.00
41573;BME280;27286;47.870;19.006;2024-01-30T03:14:19;101574.94;;;-4.64;100.00
41573;BME280;27286;47.870;19.006;2024-01-30T03:16:44;101568.63;;;-4.70;100.00
41573;BME280;27286;47.870;19.006;2024-01-30T03:19:10;101569.81;;;-4.16;100.00
41573;BME280;27286;47.870;19.006;2024-01-30T03:21:35;101562.97;;;-4.50;100.00
41573;BME280;27286;47.870;19.006;2024-01-30T03:24:00;101570.00;;;-4.61;100.00
41573;BME280;27286;47.870;19.006;2024-01-30T03:26:26;101574.94;;;-4.64;100.00
41573;BME280;27286;47.870;19.006;2024-01-30T03:28:52;101566.19;;;-4.69;100.00
41573;BME280;27286;47.870;19.006;2024-01-30T03:31:17;101569.50;;;-4.86;100.00
41573;BME280;27286;47.870;19.006;2024-01-30T03:33:42;101572.03;;;-4.86;100.00
41573;BME280;27286;47.870;19.006;2024-01-30T03:36:09;101563.03;;;-4.96;100.00
41573;BME280;27286;47.870;19.006;2024-01-30T03:38:34;101574.38;;;-4.89;100.00
41573;BME280;27286;47.870;19.006;2024-01-30T03:41:00;101570.13;;;-5.05;100.00
41573;BME280;27286;47.870;19.006;2024-01-30T03:43:25;101559.72;;;-5.09;100.00
41573;BME280;27286;47.870;19.006;2024-01-30T03:45:51;101552.69;;;-4.99;100.00
41573;BME280;27286;47.870;19.006;2024-01-30T03:48:16;101553.00;;;-4.62;100.00
41573;BME280;27286;47.870;19.006;2024-01-30T03:50:42;101548.72;;;-4.94;100.00
41573;BME280;27286;47.870;19.006;2024-01-30T03:53:07;101547.44;;;-4.71;100.00
41573;BME280;27286;47.870;19.006;2024-01-30T03:55:32;101547.66;;;-4.82;100.00
41573;BME280;27286;47.870;19.006;2024-01-30T03:57:58;101559.41;;;-4.85;100.00
41573;BME280;27286;47.870;19.006;2024-01-30T04:00:23;101564.88;;;-5.08;100.00
41573;BME280;27286;47.870;19.006;2024-01-30T04:02:49;101555.47;;;-4.94;100.00
41573;BME280;27286;47.870;19.006;2024-01-30T04:05:16;101540.09;;;-5.12;100.00
41573;BME280;27286;47.870;19.006;2024-01-30T04:07:41;101558.97;;;-4.61;100.00
41573;BME280;27286;47.870;19.006;2024-01-30T04:10:07;101555.38;;;-4.81;100.00
41573;BME280;27286;47.870;19.006;2024-01-30T04:12:33;101558.09;;;-4.93;100.00
41573;BME280;27286;47.870;19.006;2024-01-30T04:14:58;101528.19;;;-5.13;100.00
41573;BME280;27286;47.870;19.006;2024-01-30T04:17:24;101550.09;;;-5.15;100.00
41573;BME280;27286;47.870;19.006;2024-01-30T04:19:49;101559.38;;;-5.16;100.00
41573;BME280;27286;47.870;19.006;2024-01-30T04:22:14;101564.06;;;-5.07;100.00
41573;BME280;27286;47.870;19.006;2024-01-30T04:24:40;101563.59;;;-5.16;100.00
41573;BME280;27286;47.870;19.006;2024-01-30T04:27:05;101557.81;;;-5.28;100.00
41573;BME280;27286;47.870;19.006;2024-01-30T04:29:31;101570.19;;;-5.34;100.00
41573;BME280;27286;47.870;19.006;2024-01-30T04:31:57;101571.56;;;-5.39;100.00
41573;BME280;27286;47.870;19.006;2024-01-30T04:34:23;101568.22;;;-5.38;100.00
41573;BME280;27286;47.870;19.006;2024-01-30T04:36:48;101559.84;;;-5.37;100.00
41573;BME280;27286;47.870;19.006;2024-01-30T04:39:14;101550.81;;;-5.47;100.00
41573;BME280;27286;47.870;19.006;2024-01-30T04:41:39;101578.03;;;-5.30;100.00
41573;BME280;27286;47.870;19.006;2024-01-30T04:44:05;101581.78;;;-5.38;100.00
41573;BME280;27286;47.870;19.006;2024-01-30T04:46:30;101583.91;;;-5.46;100.00
41573;BME280;27286;47.870;19.006;2024-01-30T04:48:55;101586.38;;;-5.47;100.00
41573;BME280;27286;47.870;19.006;2024-01-30T04:51:21;101586.63;;;-5.42;100.00
41573;BME280;27286;47.870;19.006;2024-01-30T04:53:46;101586.44;;;-5.46;100.00
41573;BME280;27286;47.870;19.006;2024-01-30T04:56:11;101588.19;;;-5.45;100.00
41573;BME280;27286;47.870;19.006;2024-01-30T04:58:37;101591.97;;;-5.53;100.00
41573;BME280;27286;47.870;19.006;2024-01-30T05:01:02;101588.97;;;-5.46;100.00
41573;BME280;27286;47.870;19.006;2024-01-30T05:03:28;101591.69;;;-5.42;100.00
41573;BME280;27286;47.870;19.006;2024-01-30T05:05:53;101592.84;;;-5.37;100.00
41573;BME280;27286;47.870;19.006;2024-01-30T05:08:18;101597.94;;;-5.37;100.00
41573;BME280;27286;47.870;19.006;2024-01-30T05:10:44;101589.84;;;-5.45;100.00
41573;BME280;27286;47.870;19.006;2024-01-30T05:13:09;101602.09;;;-5.38;100.00
41573;BME280;27286;47.870;19.006;2024-01-30T05:15:35;101591.53;;;-5.46;100.00
41573;BME280;27286;47.870;19.006;2024-01-30T05:18:00;101603.34;;;-5.31;100.00
41573;BME280;27286;47.870;19.006;2024-01-30T05:20:26;101603.97;;;-5.35;100.00
41573;BME280;27286;47.870;19.006;2024-01-30T05:22:53;101608.25;;;-5.34;100.00
41573;BME280;27286;47.870;19.006;2024-01-30T05:25:19;101610.41;;;-5.40;100.00
41573;BME280;27286;47.870;19.006;2024-01-30T05:27:44;101605.00;;;-5.47;100.00
41573;BME280;27286;47.870;19.006;2024-01-30T05:30:10;101598.88;;;-5.35;100.00
41573;BME280;27286;47.870;19.006;2024-01-30T05:32:36;101604.13;;;-5.32;100.00
41573;BME280;27286;47.870;19.006;2024-01-30T05:35:01;101612.78;;;-5.43;100.00
41573;BME280;27286;47.870;19.006;2024-01-30T05:37:27;101602.91;;;-5.54;100.00
41573;BME280;27286;47.870;19.006;2024-01-30T05:39:52;101608.00;;;-5.54;100.00
41573;BME280;27286;47.870;19.006;2024-01-30T05:42:18;101592.22;;;-5.63;100.00
41573;BME280;27286;47.870;19.006;2024-01-30T05:44:43;101613.31;;;-5.64;100.00
41573;BME280;27286;47.870;19.006;2024-01-30T05:47:08;101578.63;;;-5.78;100.00
41573;BME280;27286;47.870;19.006;2024-01-30T05:49:34;101608.06;;;-5.67;100.00
41573;BME280;27286;47.870;19.006;2024-01-30T05:52:01;101612.50;;;-5.63;100.00
41573;BME280;27286;47.870;19.006;2024-01-30T05:54:27;101607.78;;;-5.42;100.00
41573;BME280;27286;47.870;19.006;2024-01-30T05:56:52;101611.81;;;-5.46;100.00
41573;BME280;27286;47.870;19.006;2024-01-30T05:59:18;101610.34;;;-5.27;100.00
41573;BME280;27286;47.870;19.006;2024-01-30T06:01:49;101602.38;;;-5.33;100.00
41573;BME280;27286;47.870;19.006;2024-01-30T06:04:15;101608.25;;;-5.34;100.00
41573;BME280;27286;47.870;19.006;2024-01-30T06:06:41;101615.88;;;-5.34;100.00
41573;BME280;27286;47.870;19.006;2024-01-30T06:09:06;101614.28;;;-5.47;100.00
41573;BME280;27286;47.870;19.006;2024-01-30T06:11:34;101616.28;;;-5.56;100.00
41573;BME280;27286;47.870;19.006;2024-01-30T06:13:59;101602.53;;;-5.60;100.00
41573;BME280;27286;47.870;19.006;2024-01-30T06:16:25;101590.13;;;-5.70;100.00
41573;BME280;27286;47.870;19.006;2024-01-30T06:18:57;101614.03;;;-5.37;100.00
41573;BME280;27286;47.870;19.006;2024-01-30T06:21:23;101615.16;;;-5.47;100.00
41573;BME280;27286;47.870;19.006;2024-01-30T06:23:48;101578.97;;;-5.72;100.00
41573;BME280;27286;47.870;19.006;2024-01-30T06:26:14;101579.28;;;-5.67;100.00
41573;BME280;27286;47.870;19.006;2024-01-30T06:28:39;101603.78;;;-5.53;100.00
41573;BME280;27286;47.870;19.006;2024-01-30T06:31:05;101610.53;;;-5.54;100.00
41573;BME280;27286;47.870;19.006;2024-01-30T06:33:30;101612.28;;;-5.53;100.00
41573;BME280;27286;47.870;19.006;2024-01-30T06:35:55;101587.56;;;-5.55;100.00
41573;BME280;27286;47.870;19.006;2024-01-30T06:38:21;101606.22;;;-5.25;100.00
41573;BME280;27286;47.870;19.006;2024-01-30T06:40:46;101614.09;;;-5.06;100.00
41573;BME280;27286;47.870;19.006;2024-01-30T06:43:12;101591.75;;;-4.97;100.00
41573;BME280;27286;47.870;19.006;2024-01-30T06:45:37;101606.53;;;-4.90;100.00
41573;BME280;27286;47.870;19.006;2024-01-30T06:48:03;101611.09;;;-4.84;100.00
41573;BME280;27286;47.870;19.006;2024-01-30T06:50:28;101602.69;;;-4.83;100.00
41573;BME280;27286;47.870;19.006;2024-01-30T06:52:54;101606.22;;;-4.65;100.00
41573;BME280;27286;47.870;19.006;2024-01-30T06:55:19;101609.53;;;-4.51;100.00
41573;BME280;27286;47.870;19.006;2024-01-30T06:57:44;101611.50;;;-4.45;100.00
41573;BME280;27286;47.870;19.006;2024-01-30T07:00:10;101607.63;;;-4.39;100.00
41573;BME280;27286;47.870;19.006;2024-01-30T07:02:36;101615.75;;;-4.13;100.00
41573;BME280;27286;47.870;19.006;2024-01-30T07:05:02;101615.03;;;-3.62;100.00
41573;BME280;27286;47.870;19.006;2024-01-30T07:07:28;101617.53;;;-3.12;100.00
41573;BME280;27286;47.870;19.006;2024-01-30T07:09:54;101619.34;;;-3.27;100.00
41573;BME280;27286;47.870;19.006;2024-01-30T07:12:24;101613.91;;;-3.51;100.00
41573;BME280;27286;47.870;19.006;2024-01-30T07:14:51;101619.84;;;-3.34;100.00
41573;BME280;27286;47.870;19.006;2024-01-30T07:17:16;101628.66;;;-3.27;100.00
41573;BME280;27286;47.870;19.006;2024-01-30T07:19:42;101622.91;;;-3.06;100.00
41573;BME280;27286;47.870;19.006;2024-01-30T07:22:08;101607.50;;;-3.09;100.00
41573;BME280;27286;47.870;19.006;2024-01-30T07:24:33;101621.69;;;-2.78;100.00
41573;BME280;27286;47.870;19.006;2024-01-30T07:26:58;101620.19;;;-2.37;98.99
41573;BME280;27286;47.870;19.006;2024-01-30T07:29:24;101611.66;;;-1.82;96.50
41573;BME280;27286;47.870;19.006;2024-01-30T07:31:49;101608.09;;;-1.45;94.85
41573;BME280;27286;47.870;19.006;2024-01-30T07:34:15;101613.69;;;-1.13;93.15
41573;BME280;27286;47.870;19.006;2024-01-30T07:36:40;101613.34;;;-0.79;90.79
41573;BME280;27286;47.870;19.006;2024-01-30T07:39:06;101622.72;;;-0.35;88.57
41573;BME280;27286;47.870;19.006;2024-01-30T07:41:31;101615.16;;;-0.10;88.06
41573;BME280;27286;47.870;19.006;2024-01-30T07:43:57;101616.94;;;0.41;86.93
41573;BME280;27286;47.870;19.006;2024-01-30T07:46:23;101619.03;;;0.51;85.40
41573;BME280;27286;47.870;19.006;2024-01-30T07:48:48;101614.94;;;0.83;84.82
41573;BME280;27286;47.870;19.006;2024-01-30T07:51:13;101591.72;;;1.32;82.25
41573;BME280;27286;47.870;19.006;2024-01-30T07:53:39;101613.16;;;3.59;72.79
41573;BME280;27286;47.870;19.006;2024-01-30T07:56:05;101596.25;;;5.73;60.53
41573;BME280;27286;47.870;19.006;2024-01-30T07:58:31;101601.50;;;7.72;55.12
41573;BME280;27286;47.870;19.006;2024-01-30T08:00:56;101603.56;;;8.84;50.21
41573;BME280;27286;47.870;19.006;2024-01-30T08:03:23;101597.38;;;9.78;47.14
41573;BME280;27286;47.870;19.006;2024-01-30T08:05:49;101595.34;;;10.40;44.52
41573;BME280;27286;47.870;19.006;2024-01-30T08:08:14;101602.81;;;10.90;44.32
41573;BME280;27286;47.870;19.006;2024-01-30T08:10:40;101601.63;;;11.29;42.81
41573;BME280;27286;47.870;19.006;2024-01-30T08:13:05;101596.81;;;10.80;43.69
41573;BME280;27286;47.870;19.006;2024-01-30T08:15:31;101600.72;;;11.32;42.48
41573;BME280;27286;47.870;19.006;2024-01-30T08:17:56;101604.13;;;11.38;43.00
41573;BME280;27286;47.870;19.006;2024-01-30T08:20:24;101598.09;;;12.09;40.45
41573;BME280;27286;47.870;19.006;2024-01-30T08:22:50;101609.41;;;12.71;39.80
41573;BME280;27286;47.870;19.006;2024-01-30T08:25:15;101603.59;;;12.53;39.60
41573;BME280;27286;47.870;19.006;2024-01-30T08:27:41;101601.16;;;12.41;40.57
41573;BME280;27286;47.870;19.006;2024-01-30T08:30:07;101580.91;;;11.95;42.01
41573;BME280;27286;47.870;19.006;2024-01-30T08:32:32;101610.28;;;12.08;42.34
41573;BME280;27286;47.870;19.006;2024-01-30T08:34:58;101599.69;;;12.22;42.30
41573;BME280;27286;47.870;19.006;2024-01-30T08:37:24;101598.47;;;12.47;40.93
41573;BME280;27286;47.870;19.006;2024-01-30T08:39:49;101593.88;;;13.65;39.15
41573;BME280;27286;47.870;19.006;2024-01-30T08:42:14;101585.25;;;14.01;37.92
41573;BME280;27286;47.870;19.006;2024-01-30T08:44:40;101581.78;;;13.58;40.56
41573;BME280;27286;47.870;19.006;2024-01-30T08:47:05;101588.03;;;13.00;42.25
41573;BME280;27286;47.870;19.006;2024-01-30T08:49:31;101592.91;;;12.69;41.67
41573;BME280;27286;47.870;19.006;2024-01-30T08:51:56;101582.41;;;12.72;41.73
41573;BME280;27286;47.870;19.006;2024-01-30T08:54:23;101578.25;;;13.59;40.80
41573;BME280;27286;47.870;19.006;2024-01-30T08:56:48;101582.09;;;14.26;38.98
41573;BME280;27286;47.870;19.006;2024-01-30T08:59:14;101571.41;;;15.08;37.29
41573;BME280;27286;47.870;19.006;2024-01-30T09:01:39;101570.31;;;15.49;36.05
41573;BME280;27286;47.870;19.006;2024-01-30T09:04:05;101583.91;;;14.62;36.90
41573;BME280;27286;47.870;19.006;2024-01-30T09:06:30;101574.84;;;15.42;36.36
41573;BME280;27286;47.870;19.006;2024-01-30T09:08:56;101581.59;;;14.86;37.00
41573;BME280;27286;47.870;19.006;2024-01-30T09:11:23;101577.25;;;13.21;40.10
41573;BME280;27286;47.870;19.006;2024-01-30T09:13:48;101594.78;;;12.60;42.57
41573;BME280;27286;47.870;19.006;2024-01-30T09:16:14;101586.41;;;13.45;40.93
41573;BME280;27286;47.870;19.006;2024-01-30T09:18:41;101581.28;;;16.79;33.95
41573;BME280;27286;47.870;19.006;2024-01-30T09:21:06;101574.41;;;14.92;36.57
41573;BME280;27286;47.870;19.006;2024-01-30T09:23:32;101588.25;;;15.95;36.09
41573;BME280;27286;47.870;19.006;2024-01-30T09:25:58;101581.56;;;15.85;35.30
41573;BME280;27286;47.870;19.006;2024-01-30T09:28:24;101579.22;;;17.89;32.02
41573;BME280;27286;47.870;19.006;2024-01-30T09:30:49;101575.72;;;17.63;31.38
41573;BME280;27286;47.870;19.006;2024-01-30T09:33:15;101566.06;;;16.89;34.10
41573;BME280;27286;47.870;19.006;2024-01-30T09:35:40;101584.75;;;15.96;35.37
41573;BME280;27286;47.870;19.006;2024-01-30T09:38:05;101576.22;;;14.90;36.76
41573;BME280;27286;47.870;19.006;2024-01-30T09:40:31;101583.81;;;15.35;37.63
41573;BME280;27286;47.870;19.006;2024-01-30T09:42:58;101587.59;;;16.46;34.43
41573;BME280;27286;47.870;19.006;2024-01-30T09:45:26;101578.28;;;17.41;32.63
41573;BME280;27286;47.870;19.006;2024-01-30T09:47:52;101571.50;;;17.59;32.93
41573;BME280;27286;47.870;19.006;2024-01-30T09:50:18;101564.00;;;16.72;33.74
41573;BME280;27286;47.870;19.006;2024-01-30T09:52:44;101578.31;;;16.06;33.92
41573;BME280;27286;47.870;19.006;2024-01-30T09:55:10;101574.81;;;16.35;34.07
41573;BME280;27286;47.870;19.006;2024-01-30T09:57:36;101579.50;;;17.06;33.50
41573;BME280;27286;47.870;19.006;2024-01-30T10:00:05;101589.38;;;15.88;35.30
41573;BME280;27286;47.870;19.006;2024-01-30T10:02:33;101551.63;;;17.26;32.49
41573;BME280;27286;47.870;19.006;2024-01-30T10:04:59;101583.22;;;16.18;34.60
41573;BME280;27286;47.870;19.006;2024-01-30T10:07:25;101573.63;;;17.00;32.93
41573;BME280;27286;47.870;19.006;2024-01-30T10:09:50;101574.16;;;16.55;33.97
41573;BME280;27286;47.870;19.006;2024-01-30T10:12:16;101568.50;;;18.39;31.32
41573;BME280;27286;47.870;19.006;2024-01-30T10:14:42;101563.75;;;16.80;33.37
41573;BME280;27286;47.870;19.006;2024-01-30T10:17:11;101564.34;;;16.88;34.17
41573;BME280;27286;47.870;19.006;2024-01-30T10:19:38;101558.19;;;19.18;30.41
41573;BME280;27286;47.870;19.006;2024-01-30T10:22:04;101553.66;;;18.14;31.89
41573;BME280;27286;47.870;19.006;2024-01-30T10:24:30;101539.78;;;17.62;31.33
41573;BME280;27286;47.870;19.006;2024-01-30T10:26:55;101536.22;;;18.10;31.21
41573;BME280;27286;47.870;19.006;2024-01-30T10:29:21;101541.53;;;17.62;32.30
41573;BME280;27286;47.870;19.006;2024-01-30T10:32:00;101534.56;;;19.15;30.35
41573;BME280;27286;47.870;19.006;2024-01-30T10:34:26;101523.34;;;19.49;29.29
41573;BME280;27286;47.870;19.006;2024-01-30T10:37:00;101538.28;;;19.50;28.71
41573;BME280;27286;47.870;19.006;2024-01-30T10:39:31;101528.06;;;18.82;29.73
41573;BME280;27286;47.870;19.006;2024-01-30T10:42:04;101524.03;;;18.51;30.71
41573;BME280;27286;47.870;19.006;2024-01-30T10:44:36;101516.31;;;18.69;30.16
41573;BME280;27286;47.870;19.006;2024-01-30T10:47:06;101523.28;;;19.31;29.40
41573;BME280;27286;47.870;19.006;2024-01-30T10:49:36;101515.41;;;18.70;30.79
41573;BME280;27286;47.870;19.006;2024-01-30T10:52:03;101504.06;;;18.68;30.45
41573;BME280;27286;47.870;19.006;2024-01-30T10:54:31;101515.41;;;19.70;28.55
41573;BME280;27286;47.870;19.006;2024-01-30T10:56:58;101497.28;;;18.82;30.40
41573;BME280;27286;47.870;19.006;2024-01-30T10:59:27;101508.41;;;18.89;30.51
41573;BME280;27286;47.870;19.006;2024-01-30T11:01:53;101491.56;;;19.12;29.90
41573;BME280;27286;47.870;19.006;2024-01-30T11:04:19;101499.56;;;18.04;30.84
41573;BME280;27286;47.870;19.006;2024-01-30T11:06:44;101492.63;;;18.67;29.92
41573;BME280;27286;47.870;19.006;2024-01-30T11:09:12;101495.78;;;18.75;29.95
41573;BME280;27286;47.870;19.006;2024-01-30T11:11:56;101496.53;;;18.79;30.25
41573;BME280;27286;47.870;19.006;2024-01-30T11:14:25;101496.00;;;18.71;30.15
41573;BME280;27286;47.870;19.006;2024-01-30T11:16:51;101493.03;;;18.78;29.75
41573;BME280;27286;47.870;19.006;2024-01-30T11:19:22;101497.69;;;17.14;32.07
41573;BME280;27286;47.870;19.006;2024-01-30T11:21:50;101489.66;;;18.75;30.15
41573;BME280;27286;47.870;19.006;2024-01-30T11:24:19;101495.41;;;18.20;30.94
41573;BME280;27286;47.870;19.006;2024-01-30T11:26:48;101493.22;;;16.65;33.26
41573;BME280;27286;47.870;19.006;2024-01-30T11:29:13;101487.72;;;17.70;31.78
41573;BME280;27286;47.870;19.006;2024-01-30T11:31:40;101479.94;;;17.19;32.62
41573;BME280;27286;47.870;19.006;2024-01-30T11:34:06;101474.03;;;17.12;32.55
41573;BME280;27286;47.870;19.006;2024-01-30T11:36:31;101478.00;;;17.24;32.35
41573;BME280;27286;47.870;19.006;2024-01-30T11:39:00;101466.47;;;17.97;31.37
41573;BME280;27286;47.870;19.006;2024-01-30T11:41:25;101478.75;;;19.62;28.73
41573;BME280;27286;47.870;19.006;2024-01-30T11:43:52;101465.81;;;19.56;29.07
41573;BME280;27286;47.870;19.006;2024-01-30T11:46:18;101472.59;;;19.80;28.33
41573;BME280;27286;47.870;19.006;2024-01-30T11:48:43;101457.00;;;20.29;26.98
41573;BME280;27286;47.870;19.006;2024-01-30T11:51:09;101454.72;;;20.04;28.15
41573;BME280;27286;47.870;19.006;2024-01-30T11:53:34;101442.72;;;20.33;27.35
41573;BME280;27286;47.870;19.006;2024-01-30T11:56:00;101450.63;;;20.52;26.32
41573;BME280;27286;47.870;19.006;2024-01-30T11:58:25;101445.69;;;20.62;26.79
41573;BME280;27286;47.870;19.006;2024-01-30T12:00:55;101454.25;;;19.77;27.02
41573;BME280;27286;47.870;19.006;2024-01-30T12:03:21;101458.13;;;15.85;33.36
41573;BME280;27286;47.870;19.006;2024-01-30T12:05:46;101454.88;;;14.85;34.79
41573;BME280;27286;47.870;19.006;2024-01-30T12:08:15;101451.75;;;15.03;35.32
41573;BME280;27286;47.870;19.006;2024-01-30T12:10:41;101441.09;;;15.39;34.42
41573;BME280;27286;47.870;19.006;2024-01-30T12:13:07;101450.66;;;14.46;35.56
41573;BME280;27286;47.870;19.006;2024-01-30T12:15:32;101449.25;;;14.31;36.64
41573;BME280;27286;47.870;19.006;2024-01-30T12:18:05;101434.72;;;15.77;33.54
41573;BME280;27286;47.870;19.006;2024-01-30T12:20:31;101422.06;;;16.94;31.99
41573;BME280;27286;47.870;19.006;2024-01-30T12:22:56;101428.03;;;17.46;30.88
41573;BME280;27286;47.870;19.006;2024-01-30T12:25:22;101436.00;;;16.98;31.64
41573;BME280;27286;47.870;19.006;2024-01-30T12:27:49;101424.06;;;16.36;32.00
41573;BME280;27286;47.870;19.006;2024-01-30T12:30:16;101430.03;;;15.28;33.68